createdAt,value
2018-12-16T00:03:45.993Z,87.29
2018-12-16T00:14:06.282Z,87.66
2018-12-16T00:24:27.014Z,87.79
2018-12-16T00:34:47.374Z,88.03
2018-12-16T00:45:06.968Z,88.14
2018-12-16T00:55:26.637Z,87.86
2018-12-16T01:05:45.818Z,88.19
2018-12-16T01:16:05.972Z,87.84
2018-12-16T01:26:25.954Z,87.71
2018-12-16T01:36:46.975Z,88.13
2018-12-16T01:47:06.920Z,88.20
2018-12-16T01:57:27.757Z,88.25
2018-12-16T02:07:46.904Z,88.56
2018-12-16T02:18:06.352Z,89.13
2018-12-16T02:28:26.024Z,89.33
2018-12-16T02:38:45.220Z,88.74
2018-12-16T02:49:05.125Z,88.46
2018-12-16T02:59:24.423Z,88.50
2018-12-16T03:09:44.365Z,88.45
2018-12-16T03:20:03.986Z,88.79
2018-12-16T03:30:23.470Z,88.92
2018-12-16T03:40:43.420Z,89.22
2018-12-16T03:51:04.118Z,89.54
2018-12-16T04:01:23.714Z,89.67
2018-12-16T04:11:43.384Z,89.80
2018-12-16T04:22:02.917Z,89.39
2018-12-16T04:32:22.853Z,89.51
2018-12-16T04:42:42.671Z,89.49
2018-12-16T04:53:01.967Z,89.57
2018-12-16T05:03:21.152Z,89.90
2018-12-16T05:13:40.943Z,89.86
2018-12-16T05:24:00.610Z,89.94
2018-12-16T05:34:19.460Z,90.21
2018-12-16T05:44:38.873Z,90.21
2018-12-16T05:54:59.850Z,90.38
2018-12-16T06:05:22.198Z,90.21
2018-12-16T06:15:42.095Z,90.15
2018-12-16T06:26:01.178Z,90.03
2018-12-16T06:36:20.706Z,89.88
2018-12-16T06:46:44.803Z,89.42
2018-12-16T06:57:05.125Z,89.50
2018-12-16T07:07:24.251Z,89.44
2018-12-16T07:17:44.359Z,88.91
2018-12-16T07:28:05.329Z,88.93
2018-12-16T07:38:24.836Z,88.78
2018-12-16T07:48:44.157Z,88.63
2018-12-16T07:59:04.491Z,88.62
2018-12-16T08:09:25.072Z,88.43
2018-12-16T08:19:45.560Z,88.02
2018-12-16T08:30:06.677Z,87.68
2018-12-16T08:40:26.792Z,86.71
2018-12-16T08:50:46.040Z,86.37
2018-12-16T09:01:06.290Z,87.38
2018-12-16T09:11:25.981Z,85.38
2018-12-16T09:21:46.520Z,83.04
2018-12-16T09:32:05.896Z,78.59
2018-12-16T09:42:25.354Z,78.50
2018-12-16T09:52:44.472Z,75.86
2018-12-16T10:03:04.943Z,75.80
2018-12-16T10:13:23.959Z,77.57
2018-12-16T10:23:43.249Z,78.21
2018-12-16T10:34:03.366Z,75.34
2018-12-16T10:44:23.781Z,76.15
2018-12-16T10:54:43.624Z,76.99
2018-12-16T11:05:04.158Z,75.01
2018-12-16T11:15:24.413Z,67.59
2018-12-16T11:25:53.241Z,67.39
2018-12-16T11:36:13.372Z,68.97
2018-12-16T11:46:32.877Z,69.32
2018-12-16T11:56:53.260Z,71.25
2018-12-16T12:07:13.958Z,71.26
2018-12-16T12:17:34.050Z,70.48
2018-12-16T12:27:54.991Z,68.22
2018-12-16T12:38:16.277Z,68.03
2018-12-16T12:48:37.856Z,65.90
2018-12-16T12:58:56.941Z,67.97
2018-12-16T13:09:16.953Z,67.48
2018-12-16T13:19:37.654Z,70.99
2018-12-16T13:29:58.015Z,71.28
2018-12-16T13:40:18.472Z,72.06
2018-12-16T13:50:39.472Z,73.73
2018-12-16T14:00:59.377Z,74.90
2018-12-16T14:11:20.558Z,75.15
2018-12-16T14:21:40.530Z,76.70
2018-12-16T14:32:01.016Z,77.44
2018-12-16T14:42:20.792Z,78.80
2018-12-16T14:52:41.174Z,79.97
2018-12-16T15:03:01.577Z,81.76
2018-12-16T15:13:23.105Z,83.02
2018-12-16T15:23:43.343Z,83.02
2018-12-16T15:34:03.365Z,82.98
2018-12-16T15:44:23.763Z,83.28
2018-12-16T15:54:43.961Z,84.16
2018-12-16T16:05:04.729Z,84.59
2018-12-16T16:15:25.483Z,84.87
2018-12-16T16:25:46.186Z,84.59
2018-12-16T16:36:06.040Z,84.65
2018-12-16T16:46:28.621Z,84.65
2018-12-16T16:56:48.971Z,85.14
2018-12-16T17:07:08.917Z,85.09
2018-12-16T17:17:29.323Z,84.81
2018-12-16T17:27:48.757Z,85.13
2018-12-16T17:38:08.432Z,85.40
2018-12-16T17:48:28.855Z,85.33
2018-12-16T17:58:48.592Z,85.53
2018-12-16T18:09:08.630Z,85.28
2018-12-16T18:19:28.524Z,85.28
2018-12-16T18:29:48.557Z,85.59
2018-12-16T18:40:09.427Z,85.09
2018-12-16T18:50:29.621Z,85.02
2018-12-16T19:00:50.820Z,85.21
2018-12-16T19:11:11.762Z,85.05
2018-12-16T19:21:31.096Z,85.60
2018-12-16T19:31:51.278Z,86.13
2018-12-16T19:42:11.984Z,86.13
2018-12-16T19:52:32.165Z,86.10
2018-12-16T20:02:54.307Z,86.40
2018-12-16T20:13:15.025Z,86.17
2018-12-16T20:23:36.106Z,86.15
2018-12-16T20:33:57.180Z,86.02
2018-12-16T20:44:18.019Z,86.02
2018-12-16T20:54:40.228Z,86.40
2018-12-16T21:05:02.429Z,86.27
2018-12-16T21:15:40.521Z,86.27
2018-12-16T21:26:00.193Z,86.83
2018-12-16T21:36:20.294Z,86.88
2018-12-16T21:46:39.977Z,87.32
2018-12-16T21:56:59.551Z,87.44
2018-12-16T22:07:19.908Z,87.20
2018-12-16T22:17:39.438Z,87.65
2018-12-16T22:27:59.173Z,86.90
2018-12-16T22:38:19.905Z,87.42
2018-12-16T22:48:40.553Z,87.75
2018-12-16T22:58:59.353Z,87.75
2018-12-16T23:09:18.591Z,87.92
2018-12-16T23:19:39.765Z,88.04
2018-12-16T23:30:00.289Z,87.85
2018-12-16T23:40:19.778Z,87.85
2018-12-16T23:50:39.747Z,88.44
